Pelican Lake, WI (54463)

10:55 AM CDT on September 04, 2015 (GMT -0500)
WIDOT | | Change Station
CLOSE
Current Station
Personal Weather Station
Location: Pelican Lake, WI
Elevation: 1601 ft
Nearby Weather Stations

Elev 1601 ft 45.58 °N, 89.15 °W | Updated 1 hour ago

Clear
Clear
69.0 °F
Feels Like 69.0 °F
N
4.0
Wind Variable Wind from East
Gusts 6.0 mph

Today
High -- | Low -- °F
--% Chance of Precip.
Yesterday
High -- | Low -- °F
Precip. -- in
6:21 AM 7:29 PM
Waning Gibbous, 58% visible
Pressure 30.07 in
Visibility 10.0 miles
Clouds Clear
Dew Point 68.0 °F
Humidity 99%
Rainfall in
Snow Depth Not available.
UV 4 out of 12
Pollen 9.80 out of 12
Air Quality Not available.
Flu Activity Not available.
METAR KRHI 041453Z AUTO 10010KT 10SM CLR 22/17 A3008 RMK AO2 SLP183 T02220172 50001
Pressure 30.07 in
Visibility 10.0 miles
Clouds Clear
Dew Point 68.0 °F
Humidity 99%
Rainfall in
Snow Depth Not available.
UV 4 out of 12
Pollen 9.80 out of 12
Air Quality Not available.
Flu Activity Not available.
METAR KRHI 041453Z AUTO 10010KT 10SM CLR 22/17 A3008 RMK AO2 SLP183 T02220172 50001

10-Day Weather Forecast

×

Almanac

Astronomy

Sep. 04, 2015 Rise Set
Actual Time
Civil Twilight
Nautical Twilight
Astronomical Twilight
Moon
Length of Visible Light
Length of Day
Tomorrow will be .
, % of the Moon is Illuminated

Today's Extremes

State Highs State Lows

Community

WunderPhotos

Upload Photos

1,852,197 photos uploaded!

WunderBlogs® & News

Nearby

Air Quality

  Air Quality AQ Index Pollutant
Not available.

Snow Depth

Station Depth Elevation

Earthquake Activity

City Distance Mag. Time & Date
Minimum magnitude displayed is 2.5.

Coastal Water Temperatures

Place Temperature

Stations

Nearby Weather Stations

Station Location Temp. Windchill Dew Point Humidity Wind Precip. Elev Updated Type